sensor_id;sensor_type;location;lat;lon;timestamp;temperature;humidity
21271;DHT22;10795;50.796;3.860;2022-07-01T00:01:59;13.20;99.90
21271;DHT22;10795;50.796;3.860;2022-07-01T00:04:25;13.10;99.90
21271;DHT22;10795;50.796;3.860;2022-07-01T00:07:12;13.10;99.90
21271;DHT22;10795;50.796;3.860;2022-07-01T00:09:38;13.00;99.90
21271;DHT22;10795;50.796;3.860;2022-07-01T00:12:05;13.10;99.90
21271;DHT22;10795;50.796;3.860;2022-07-01T00:14:31;13.10;99.90
21271;DHT22;10795;50.796;3.860;2022-07-01T00:16:57;13.10;99.90
21271;DHT22;10795;50.796;3.860;2022-07-01T00:19:23;13.00;99.90
21271;DHT22;10795;50.796;3.860;2022-07-01T00:21:51;13.20;99.90
21271;DHT22;10795;50.796;3.860;2022-07-01T00:24:16;13.10;99.90
21271;DHT22;10795;50.796;3.860;2022-07-01T00:26:42;13.20;99.90
21271;DHT22;10795;50.796;3.860;2022-07-01T00:29:08;13.20;99.90
21271;DHT22;10795;50.796;3.860;2022-07-01T00:31:34;13.40;99.90
21271;DHT22;10795;50.796;3.860;2022-07-01T00:34:01;13.40;99.90
21271;DHT22;10795;50.796;3.860;2022-07-01T00:36:28;13.40;99.90
21271;DHT22;10795;50.796;3.860;2022-07-01T00:38:53;13.30;99.90
21271;DHT22;10795;50.796;3.860;2022-07-01T00:41:19;13.10;99.90
21271;DHT22;10795;50.796;3.860;2022-07-01T00:43:45;13.00;99.90
21271;DHT22;10795;50.796;3.860;2022-07-01T00:46:11;12.90;99.90
21271;DHT22;10795;50.796;3.860;2022-07-01T00:48:37;12.80;99.90
21271;DHT22;10795;50.796;3.860;2022-07-01T00:51:03;12.80;99.90
21271;DHT22;10795;50.796;3.860;2022-07-01T00:53:31;12.80;99.90
21271;DHT22;10795;50.796;3.860;2022-07-01T00:55:56;12.80;99.90
21271;DHT22;10795;50.796;3.860;2022-07-01T00:58:23;12.80;99.90
21271;DHT22;10795;50.796;3.860;2022-07-01T01:00:50;12.80;99.90
21271;DHT22;10795;50.796;3.860;2022-07-01T01:03:16;12.80;99.90
21271;DHT22;10795;50.796;3.860;2022-07-01T01:05:42;12.80;99.90
21271;DHT22;10795;50.796;3.860;2022-07-01T01:08:08;12.90;99.90
21271;DHT22;10795;50.796;3.860;2022-07-01T01:10:36;12.90;99.90
21271;DHT22;10795;50.796;3.860;2022-07-01T01:13:03;12.80;99.90
21271;DHT22;10795;50.796;3.860;2022-07-01T01:15:30;12.90;99.90
21271;DHT22;10795;50.796;3.860;2022-07-01T01:17:55;13.00;99.90
21271;DHT22;10795;50.796;3.860;2022-07-01T01:20:21;13.10;99.90
21271;DHT22;10795;50.796;3.860;2022-07-01T01:22:48;13.10;99.90
21271;DHT22;10795;50.796;3.860;2022-07-01T01:25:15;13.10;99.90
21271;DHT22;10795;50.796;3.860;2022-07-01T01:27:41;13.00;99.90
21271;DHT22;10795;50.796;3.860;2022-07-01T01:30:09;12.80;99.90
21271;DHT22;10795;50.796;3.860;2022-07-01T01:32:35;12.80;99.90
21271;DHT22;10795;50.796;3.860;2022-07-01T01:35:02;12.90;99.90
21271;DHT22;10795;50.796;3.860;2022-07-01T01:37:28;12.80;99.90
21271;DHT22;10795;50.796;3.860;2022-07-01T01:39:54;12.80;99.90
21271;DHT22;10795;50.796;3.860;2022-07-01T01:42:20;12.90;99.90
21271;DHT22;10795;50.796;3.860;2022-07-01T01:44:47;12.90;99.90
21271;DHT22;10795;50.796;3.860;2022-07-01T01:47:13;12.90;99.90
21271;DHT22;10795;50.796;3.860;2022-07-01T01:49:39;12.80;99.90
21271;DHT22;10795;50.796;3.860;2022-07-01T01:52:05;12.70;99.90
21271;DHT22;10795;50.796;3.860;2022-07-01T01:54:32;12.60;99.90
21271;DHT22;10795;50.796;3.860;2022-07-01T01:56:58;12.60;99.90
21271;DHT22;10795;50.796;3.860;2022-07-01T01:59:24;12.60;99.90
21271;DHT22;10795;50.796;3.860;2022-07-01T02:01:49;12.60;99.90
21271;DHT22;10795;50.796;3.860;2022-07-01T02:04:15;12.60;99.90
21271;DHT22;10795;50.796;3.860;2022-07-01T02:06:41;12.60;99.90
21271;DHT22;10795;50.796;3.860;2022-07-01T02:09:08;12.60;99.90
21271;DHT22;10795;50.796;3.860;2022-07-01T02:11:34;12.80;99.90
21271;DHT22;10795;50.796;3.860;2022-07-01T02:14:00;12.70;99.90
21271;DHT22;10795;50.796;3.860;2022-07-01T02:16:26;12.60;99.90
21271;DHT22;10795;50.796;3.860;2022-07-01T02:18:52;12.60;99.90
21271;DHT22;10795;50.796;3.860;2022-07-01T02:21:18;12.60;99.90
21271;DHT22;10795;50.796;3.860;2022-07-01T02:23:44;12.60;99.90
21271;DHT22;10795;50.796;3.860;2022-07-01T02:26:10;12.50;99.90
21271;DHT22;10795;50.796;3.860;2022-07-01T02:28:35;12.40;99.90
21271;DHT22;10795;50.796;3.860;2022-07-01T02:31:01;12.40;99.90
21271;DHT22;10795;50.796;3.860;2022-07-01T02:33:28;12.40;99.90
21271;DHT22;10795;50.796;3.860;2022-07-01T02:35:54;12.40;99.90
21271;DHT22;10795;50.796;3.860;2022-07-01T02:38:20;12.30;99.90
21271;DHT22;10795;50.796;3.860;2022-07-01T02:40:46;12.30;99.90
21271;DHT22;10795;50.796;3.860;2022-07-01T02:43:12;12.20;99.90
21271;DHT22;10795;50.796;3.860;2022-07-01T02:45:37;12.20;99.90
21271;DHT22;10795;50.796;3.860;2022-07-01T02:48:04;12.20;99.90
21271;DHT22;10795;50.796;3.860;2022-07-01T02:50:30;12.10;99.90
21271;DHT22;10795;50.796;3.860;2022-07-01T02:52:55;12.10;99.90
21271;DHT22;10795;50.796;3.860;2022-07-01T02:55:21;12.10;99.90
21271;DHT22;10795;50.796;3.860;2022-07-01T02:57:47;12.10;99.90
21271;DHT22;10795;50.796;3.860;2022-07-01T03:00:18;12.10;99.90
21271;DHT22;10795;50.796;3.860;2022-07-01T03:02:45;12.10;99.90
21271;DHT22;10795;50.796;3.860;2022-07-01T03:05:11;12.00;99.90
21271;DHT22;10795;50.796;3.860;2022-07-01T03:07:40;12.00;99.90
21271;DHT22;10795;50.796;3.860;2022-07-01T03:10:07;12.00;99.90
21271;DHT22;10795;50.796;3.860;2022-07-01T03:12:32;12.00;99.90
21271;DHT22;10795;50.796;3.860;2022-07-01T03:15:04;12.10;99.90
21271;DHT22;10795;50.796;3.860;2022-07-01T03:17:31;11.90;99.90
21271;DHT22;10795;50.796;3.860;2022-07-01T03:19:58;11.80;99.90
21271;DHT22;10795;50.796;3.860;2022-07-01T03:22:27;11.90;99.90
21271;DHT22;10795;50.796;3.860;2022-07-01T03:24:56;11.80;99.90
21271;DHT22;10795;50.796;3.860;2022-07-01T03:27:23;11.70;99.90
21271;DHT22;10795;50.796;3.860;2022-07-01T03:29:50;11.80;99.90
21271;DHT22;10795;50.796;3.860;2022-07-01T03:32:16;11.90;99.90
21271;DHT22;10795;50.796;3.860;2022-07-01T03:34:45;11.90;99.90
21271;DHT22;10795;50.796;3.860;2022-07-01T03:37:13;11.70;99.90
21271;DHT22;10795;50.796;3.860;2022-07-01T03:39:39;11.70;99.90
21271;DHT22;10795;50.796;3.860;2022-07-01T03:42:06;11.60;99.90
21271;DHT22;10795;50.796;3.860;2022-07-01T03:44:33;11.70;99.90
21271;DHT22;10795;50.796;3.860;2022-07-01T03:46:59;11.70;99.90
21271;DHT22;10795;50.796;3.860;2022-07-01T03:49:25;11.70;99.90
21271;DHT22;10795;50.796;3.860;2022-07-01T03:51:51;11.80;99.90
21271;DHT22;10795;50.796;3.860;2022-07-01T03:54:18;11.70;99.90
21271;DHT22;10795;50.796;3.860;2022-07-01T03:57:00;11.60;99.90
21271;DHT22;10795;50.796;3.860;2022-07-01T03:59:27;11.50;99.90
21271;DHT22;10795;50.796;3.860;2022-07-01T04:01:57;11.60;99.90
21271;DHT22;10795;50.796;3.860;2022-07-01T04:04:24;11.60;99.90
21271;DHT22;10795;50.796;3.860;2022-07-01T04:06:51;11.60;99.90
21271;DHT22;10795;50.796;3.860;2022-07-01T04:09:18;11.60;99.90
21271;DHT22;10795;50.796;3.860;2022-07-01T04:11:45;11.60;99.90
21271;DHT22;10795;50.796;3.860;2022-07-01T04:14:12;11.70;99.90
21271;DHT22;10795;50.796;3.860;2022-07-01T04:16:38;11.70;99.90
21271;DHT22;10795;50.796;3.860;2022-07-01T04:19:04;11.80;99.90
21271;DHT22;10795;50.796;3.860;2022-07-01T04:21:31;11.90;99.90
21271;DHT22;10795;50.796;3.860;2022-07-01T04:24:15;12.00;99.90
21271;DHT22;10795;50.796;3.860;2022-07-01T04:26:42;11.90;99.90
21271;DHT22;10795;50.796;3.860;2022-07-01T04:29:08;12.10;99.90
21271;DHT22;10795;50.796;3.860;2022-07-01T04:31:35;12.10;99.90
21271;DHT22;10795;50.796;3.860;2022-07-01T04:34:01;12.10;99.90
21271;DHT22;10795;50.796;3.860;2022-07-01T04:36:27;12.00;99.90
21271;DHT22;10795;50.796;3.860;2022-07-01T04:38:53;11.90;99.90
21271;DHT22;10795;50.796;3.860;2022-07-01T04:41:19;11.80;99.90
21271;DHT22;10795;50.796;3.860;2022-07-01T04:44:03;11.70;99.90
21271;DHT22;10795;50.796;3.860;2022-07-01T04:46:29;11.80;99.90
21271;DHT22;10795;50.796;3.860;2022-07-01T04:48:55;12.00;99.90
21271;DHT22;10795;50.796;3.860;2022-07-01T04:51:21;12.00;99.90
21271;DHT22;10795;50.796;3.860;2022-07-01T04:53:47;11.90;99.90
21271;DHT22;10795;50.796;3.860;2022-07-01T04:56:14;12.00;99.90
21271;DHT22;10795;50.796;3.860;2022-07-01T04:58:39;12.10;99.90
21271;DHT22;10795;50.796;3.860;2022-07-01T05:01:05;12.10;99.90
21271;DHT22;10795;50.796;3.860;2022-07-01T05:03:31;12.30;99.90
21271;DHT22;10795;50.796;3.860;2022-07-01T05:05:57;12.30;99.90
21271;DHT22;10795;50.796;3.860;2022-07-01T05:08:23;12.50;99.90
21271;DHT22;10795;50.796;3.860;2022-07-01T05:10:49;12.50;99.90
21271;DHT22;10795;50.796;3.860;2022-07-01T05:13:15;12.70;99.90
21271;DHT22;10795;50.796;3.860;2022-07-01T05:15:40;12.80;99.90
21271;DHT22;10795;50.796;3.860;2022-07-01T05:18:06;12.90;99.90
21271;DHT22;10795;50.796;3.860;2022-07-01T05:20:50;13.10;99.90
21271;DHT22;10795;50.796;3.860;2022-07-01T05:23:35;13.70;99.90
21271;DHT22;10795;50.796;3.860;2022-07-01T05:26:02;13.50;99.90
21271;DHT22;10795;50.796;3.860;2022-07-01T05:28:28;13.80;99.90
21271;DHT22;10795;50.796;3.860;2022-07-01T05:30:53;13.60;99.90
21271;DHT22;10795;50.796;3.860;2022-07-01T05:33:19;14.30;99.90
21271;DHT22;10795;50.796;3.860;2022-07-01T05:35:49;14.80;99.90
21271;DHT22;10795;50.796;3.860;2022-07-01T05:38:15;14.80;99.90
21271;DHT22;10795;50.796;3.860;2022-07-01T05:40:40;15.20;99.90
21271;DHT22;10795;50.796;3.860;2022-07-01T05:43:06;15.40;99.90
21271;DHT22;10795;50.796;3.860;2022-07-01T05:45:32;15.70;99.90
21271;DHT22;10795;50.796;3.860;2022-07-01T05:47:58;15.90;99.90
21271;DHT22;10795;50.796;3.860;2022-07-01T05:50:24;16.00;99.90
21271;DHT22;10795;50.796;3.860;2022-07-01T05:52:50;16.00;99.90
21271;DHT22;10795;50.796;3.860;2022-07-01T05:55:17;16.10;99.90
21271;DHT22;10795;50.796;3.860;2022-07-01T05:57:43;16.20;99.90
21271;DHT22;10795;50.796;3.860;2022-07-01T06:00:09;16.70;99.90
21271;DHT22;10795;50.796;3.860;2022-07-01T06:02:38;16.20;99.90
21271;DHT22;10795;50.796;3.860;2022-07-01T06:05:04;16.60;99.90
21271;DHT22;10795;50.796;3.860;2022-07-01T06:07:30;16.70;99.90
21271;DHT22;10795;50.796;3.860;2022-07-01T06:09:56;16.30;99.90
21271;DHT22;10795;50.796;3.860;2022-07-01T06:12:22;16.30;99.90
21271;DHT22;10795;50.796;3.860;2022-07-01T06:14:48;16.40;99.90
21271;DHT22;10795;50.796;3.860;2022-07-01T06:17:15;16.20;99.90
21271;DHT22;10795;50.796;3.860;2022-07-01T06:19:41;16.10;99.90
21271;DHT22;10795;50.796;3.860;2022-07-01T06:22:07;16.50;99.90
21271;DHT22;10795;50.796;3.860;2022-07-01T06:24:33;16.90;99.90
21271;DHT22;10795;50.796;3.860;2022-07-01T06:26:58;17.50;99.90
21271;DHT22;10795;50.796;3.860;2022-07-01T06:29:25;17.20;99.90
21271;DHT22;10795;50.796;3.860;2022-07-01T06:31:55;17.60;99.90
21271;DHT22;10795;50.796;3.860;2022-07-01T06:34:20;17.70;99.90
21271;DHT22;10795;50.796;3.860;2022-07-01T06:36:46;17.20;99.90
21271;DHT22;10795;50.796;3.860;2022-07-01T06:39:12;17.70;99.90
21271;DHT22;10795;50.796;3.860;2022-07-01T06:41:38;18.40;99.90
21271;DHT22;10795;50.796;3.860;2022-07-01T06:44:03;18.00;99.90
21271;DHT22;10795;50.796;3.860;2022-07-01T06:46:31;17.40;99.90
21271;DHT22;10795;50.796;3.860;2022-07-01T06:48:58;17.30;99.90
21271;DHT22;10795;50.796;3.860;2022-07-01T06:51:25;17.30;99.90
21271;DHT22;10795;50.796;3.860;2022-07-01T06:53:51;17.10;99.90
21271;DHT22;10795;50.796;3.860;2022-07-01T06:56:17;17.50;99.90
21271;DHT22;10795;50.796;3.860;2022-07-01T06:58:43;17.80;99.90
21271;DHT22;10795;50.796;3.860;2022-07-01T07:01:09;17.90;99.90
21271;DHT22;10795;50.796;3.860;2022-07-01T07:03:35;17.70;99.90
21271;DHT22;10795;50.796;3.860;2022-07-01T07:06:02;18.10;99.90
21271;DHT22;10795;50.796;3.860;2022-07-01T07:08:29;19.00;99.90
21271;DHT22;10795;50.796;3.860;2022-07-01T07:10:55;19.00;99.90
21271;DHT22;10795;50.796;3.860;2022-07-01T07:13:21;18.30;99.90
21271;DHT22;10795;50.796;3.860;2022-07-01T07:15:47;17.90;99.90
21271;DHT22;10795;50.796;3.860;2022-07-01T07:18:28;18.60;99.90
21271;DHT22;10795;50.796;3.860;2022-07-01T07:20:54;19.20;99.90
21271;DHT22;10795;50.796;3.860;2022-07-01T07:23:20;18.60;99.90
21271;DHT22;10795;50.796;3.860;2022-07-01T07:25:46;19.60;99.90
21271;DHT22;10795;50.796;3.860;2022-07-01T07:28:12;18.80;99.90
21271;DHT22;10795;50.796;3.860;2022-07-01T07:30:38;18.20;99.90
21271;DHT22;10795;50.796;3.860;2022-07-01T07:33:04;18.40;99.90
21271;DHT22;10795;50.796;3.860;2022-07-01T07:35:30;18.90;99.90
21271;DHT22;10795;50.796;3.860;2022-07-01T07:37:55;19.10;99.90
21271;DHT22;10795;50.796;3.860;2022-07-01T07:40:23;19.20;99.90
21271;DHT22;10795;50.796;3.860;2022-07-01T07:42:49;18.20;99.90
21271;DHT22;10795;50.796;3.860;2022-07-01T07:45:15;19.20;99.90
21271;DHT22;10795;50.796;3.860;2022-07-01T07:47:43;19.70;99.90
21271;DHT22;10795;50.796;3.860;2022-07-01T07:50:10;19.70;99.90
21271;DHT22;10795;50.796;3.860;2022-07-01T07:52:36;19.60;99.90
21271;DHT22;10795;50.796;3.860;2022-07-01T07:55:03;19.70;99.90
21271;DHT22;10795;50.796;3.860;2022-07-01T07:57:29;19.90;99.90
21271;DHT22;10795;50.796;3.860;2022-07-01T07:59:55;19.20;99.90
21271;DHT22;10795;50.796;3.860;2022-07-01T08:02:21;18.80;99.90
21271;DHT22;10795;50.796;3.860;2022-07-01T08:04:47;19.70;99.90
21271;DHT22;10795;50.796;3.860;2022-07-01T08:07:13;20.70;99.90
21271;DHT22;10795;50.796;3.860;2022-07-01T08:09:39;20.10;99.90
21271;DHT22;10795;50.796;3.860;2022-07-01T08:12:07;20.80;99.90
21271;DHT22;10795;50.796;3.860;2022-07-01T08:14:33;20.50;99.90
21271;DHT22;10795;50.796;3.860;2022-07-01T08:16:59;21.00;99.90
21271;DHT22;10795;50.796;3.860;2022-07-01T08:19:24;20.80;99.90
21271;DHT22;10795;50.796;3.860;2022-07-01T08:21:50;21.20;99.90
21271;DHT22;10795;50.796;3.860;2022-07-01T08:24:16;21.40;99.90
21271;DHT22;10795;50.796;3.860;2022-07-01T08:26:41;21.10;99.90
21271;DHT22;10795;50.796;3.860;2022-07-01T08:29:07;21.30;99.90
21271;DHT22;10795;50.796;3.860;2022-07-01T08:31:33;21.10;99.90
21271;DHT22;10795;50.796;3.860;2022-07-01T08:33:59;21.60;99.90
21271;DHT22;10795;50.796;3.860;2022-07-01T08:36:24;22.00;99.90
21271;DHT22;10795;50.796;3.860;2022-07-01T08:38:50;21.80;99.90
21271;DHT22;10795;50.796;3.860;2022-07-01T08:41:16;21.50;99.90
21271;DHT22;10795;50.796;3.860;2022-07-01T08:43:44;21.10;99.90
21271;DHT22;10795;50.796;3.860;2022-07-01T08:46:10;21.70;99.90
21271;DHT22;10795;50.796;3.860;2022-07-01T08:48:36;21.10;99.90
21271;DHT22;10795;50.796;3.860;2022-07-01T08:51:02;21.50;99.90
21271;DHT22;10795;50.796;3.860;2022-07-01T08:53:30;20.40;99.90
21271;DHT22;10795;50.796;3.860;2022-07-01T08:55:58;20.40;99.90
21271;DHT22;10795;50.796;3.860;2022-07-01T08:58:43;20.20;99.90
21271;DHT22;10795;50.796;3.860;2022-07-01T09:01:17;20.00;99.90
21271;DHT22;10795;50.796;3.860;2022-07-01T09:03:44;19.60;99.90
21271;DHT22;10795;50.796;3.860;2022-07-01T09:06:26;19.80;99.90
21271;DHT22;10795;50.796;3.860;2022-07-01T09:08:52;20.10;99.90
21271;DHT22;10795;50.796;3.860;2022-07-01T09:11:20;20.40;99.90
21271;DHT22;10795;50.796;3.860;2022-07-01T09:14:11;20.50;99.90
21271;DHT22;10795;50.796;3.860;2022-07-01T09:16:48;21.00;99.90
21271;DHT22;10795;50.796;3.860;2022-07-01T09:19:19;21.60;99.90
21271;DHT22;10795;50.796;3.860;2022-07-01T09:21:50;21.20;99.90
21271;DHT22;10795;50.796;3.860;2022-07-01T09:24:28;21.00;99.90
21271;DHT22;10795;50.796;3.860;2022-07-01T09:27:08;20.90;99.90
21271;DHT22;10795;50.796;3.860;2022-07-01T09:29:51;20.70;99.90
21271;DHT22;10795;50.796;3.860;2022-07-01T09:32:20;20.70;99.90
21271;DHT22;10795;50.796;3.860;2022-07-01T09:34:49;20.70;99.90
21271;DHT22;10795;50.796;3.860;2022-07-01T09:37:17;21.30;99.90
21271;DHT22;10795;50.796;3.860;2022-07-01T09:39:45;21.50;99.90
21271;DHT22;10795;50.796;3.860;2022-07-01T09:42:12;21.40;99.90
21271;DHT22;10795;50.796;3.860;2022-07-01T09:47:32;21.70;99.90
21271;DHT22;10795;50.796;3.860;2022-07-01T09:50:02;22.00;99.90
21271;DHT22;10795;50.796;3.860;2022-07-01T09:52:29;22.60;99.90
21271;DHT22;10795;50.796;3.860;2022-07-01T09:54:54;23.30;99.90
21271;DHT22;10795;50.796;3.860;2022-07-01T09:57:21;23.40;99.90
21271;DHT22;10795;50.796;3.860;2022-07-01T09:59:48;23.70;99.90
21271;DHT22;10795;50.796;3.860;2022-07-01T10:02:15;23.80;99.90
21271;DHT22;10795;50.796;3.860;2022-07-01T10:04:49;23.60;99.90
21271;DHT22;10795;50.796;3.860;2022-07-01T10:10:08;23.50;99.90
21271;DHT22;10795;50.796;3.860;2022-07-01T10:12:39;23.50;99.90
21271;DHT22;10795;50.796;3.860;2022-07-01T10:15:08;22.60;99.90
21271;DHT22;10795;50.796;3.860;2022-07-01T10:17:40;23.30;99.90
21271;DHT22;10795;50.796;3.860;2022-07-01T10:20:13;23.00;99.90
21271;DHT22;10795;50.796;3.860;2022-07-01T10:22:40;23.70;99.90
21271;DHT22;10795;50.796;3.860;2022-07-01T10:31:01;21.80;99.90
21271;DHT22;10795;50.796;3.860;2022-07-01T10:33:30;21.80;99.90
21271;DHT22;10795;50.796;3.860;2022-07-01T10:36:07;22.40;99.90
21271;DHT22;10795;50.796;3.860;2022-07-01T10:38:33;23.50;99.90
21271;DHT22;10795;50.796;3.860;2022-07-01T10:41:00;23.60;99.90
21271;DHT22;10795;50.796;3.860;2022-07-01T10:43:36;22.50;99.90
21271;DHT22;10795;50.796;3.860;2022-07-01T10:46:07;22.30;99.90
21271;DHT22;10795;50.796;3.860;2022-07-01T10:48:33;22.60;99.90
21271;DHT22;10795;50.796;3.860;2022-07-01T10:51:00;22.60;99.90
21271;DHT22;10795;50.796;3.860;2022-07-01T10:53:45;21.90;99.90
21271;DHT22;10795;50.796;3.860;2022-07-01T10:56:16;21.60;99.90
21271;DHT22;10795;50.796;3.860;2022-07-01T10:58:43;21.50;99.90
21271;DHT22;10795;50.796;3.860;2022-07-01T11:01:09;21.50;99.90
21271;DHT22;10795;50.796;3.860;2022-07-01T11:03:37;21.50;99.90
21271;DHT22;10795;50.796;3.860;2022-07-01T11:06:04;21.60;99.90
21271;DHT22;10795;50.796;3.860;2022-07-01T11:08:30;22.60;99.90
21271;DHT22;10795;50.796;3.860;2022-07-01T11:10:58;22.70;99.90
21271;DHT22;10795;50.796;3.860;2022-07-01T11:13:26;23.50;99.90
21271;DHT22;10795;50.796;3.860;2022-07-01T11:15:53;23.30;99.90
21271;DHT22;10795;50.796;3.860;2022-07-01T11:18:19;23.90;99.90
21271;DHT22;10795;50.796;3.860;2022-07-01T11:20:46;24.50;99.90
21271;DHT22;10795;50.796;3.860;2022-07-01T11:23:12;23.80;99.90
21271;DHT22;10795;50.796;3.860;2022-07-01T11:25:38;23.20;99.90
21271;DHT22;10795;50.796;3.860;2022-07-01T11:28:04;23.10;99.90
21271;DHT22;10795;50.796;3.860;2022-07-01T11:30:30;23.40;99.90
21271;DHT22;10795;50.796;3.860;2022-07-01T11:32:57;23.30;99.90
21271;DHT22;10795;50.796;3.860;2022-07-01T11:35:29;23.10;99.90
21271;DHT22;10795;50.796;3.860;2022-07-01T11:38:14;23.90;99.90
21271;DHT22;10795;50.796;3.860;2022-07-01T11:41:02;24.60;99.90
21271;DHT22;10795;50.796;3.860;2022-07-01T11:43:38;24.60;99.90
21271;DHT22;10795;50.796;3.860;2022-07-01T11:46:05;23.40;99.90
21271;DHT22;10795;50.796;3.860;2022-07-01T11:51:16;24.30;99.90
21271;DHT22;10795;50.796;3.860;2022-07-01T11:53:47;24.90;99.90
21271;DHT22;10795;50.796;3.860;2022-07-01T11:56:27;24.80;99.90
21271;DHT22;10795;50.796;3.860;2022-07-01T11:58:53;24.50;99.90
21271;DHT22;10795;50.796;3.860;2022-07-01T12:03:57;24.40;99.90
21271;DHT22;10795;50.796;3.860;2022-07-01T12:06:23;23.70;99.90
21271;DHT22;10795;50.796;3.860;2022-07-01T12:08:50;24.30;99.90
21271;DHT22;10795;50.796;3.860;2022-07-01T12:11:20;24.10;99.90
21271;DHT22;10795;50.796;3.860;2022-07-01T12:13:48;22.90;99.90
21271;DHT22;10795;50.796;3.860;2022-07-01T12:16:14;22.90;99.90
21271;DHT22;10795;50.796;3.860;2022-07-01T12:19:10;23.30;99.90
21271;DHT22;10795;50.796;3.860;2022-07-01T12:21:53;23.90;99.90
21271;DHT22;10795;50.796;3.860;2022-07-01T12:24:20;24.00;99.90
21271;DHT22;10795;50.796;3.860;2022-07-01T12:27:05;24.00;99.90
21271;DHT22;10795;50.796;3.860;2022-07-01T12:29:49;23.50;99.90
21271;DHT22;10795;50.796;3.860;2022-07-01T12:32:29;23.10;99.90
21271;DHT22;10795;50.796;3.860;2022-07-01T12:35:05;23.30;99.90
21271;DHT22;10795;50.796;3.860;2022-07-01T12:37:51;24.00;99.90
21271;DHT22;10795;50.796;3.860;2022-07-01T12:40:26;23.70;99.90
21271;DHT22;10795;50.796;3.860;2022-07-01T12:42:56;23.80;99.90
21271;DHT22;10795;50.796;3.860;2022-07-01T12:45:25;23.10;99.90
21271;DHT22;10795;50.796;3.860;2022-07-01T12:47:54;22.30;99.90
21271;DHT22;10795;50.796;3.860;2022-07-01T12:50:29;22.30;99.90
21271;DHT22;10795;50.796;3.860;2022-07-01T12:53:04;22.70;99.90
21271;DHT22;10795;50.796;3.860;2022-07-01T12:55:43;22.60;99.90
21271;DHT22;10795;50.796;3.860;2022-07-01T12:58:13;22.30;99.90
21271;DHT22;10795;50.796;3.860;2022-07-01T13:00:41;21.80;99.90
21271;DHT22;10795;50.796;3.860;2022-07-01T13:03:07;21.60;99.90
21271;DHT22;10795;50.796;3.860;2022-07-01T13:05:37;21.30;99.90
21271;DHT22;10795;50.796;3.860;2022-07-01T13:08:05;21.00;99.90
21271;DHT22;10795;50.796;3.860;2022-07-01T13:10:31;21.00;99.90
21271;DHT22;10795;50.796;3.860;2022-07-01T13:12:58;21.60;99.90
21271;DHT22;10795;50.796;3.860;2022-07-01T13:15:26;22.00;99.90
21271;DHT22;10795;50.796;3.860;2022-07-01T13:17:53;22.60;99.90
21271;DHT22;10795;50.796;3.860;2022-07-01T13:20:19;22.80;99.90
21271;DHT22;10795;50.796;3.860;2022-07-01T13:22:45;22.10;99.90
21271;DHT22;10795;50.796;3.860;2022-07-01T13:25:10;21.80;99.90
21271;DHT22;10795;50.796;3.860;2022-07-01T13:27:37;21.80;99.90
21271;DHT22;10795;50.796;3.860;2022-07-01T13:30:05;22.00;99.90
21271;DHT22;10795;50.796;3.860;2022-07-01T13:32:31;22.30;99.90
21271;DHT22;10795;50.796;3.860;2022-07-01T13:34:56;23.30;99.90
21271;DHT22;10795;50.796;3.860;2022-07-01T13:37:22;23.80;99.90
21271;DHT22;10795;50.796;3.860;2022-07-01T13:39:48;23.80;99.90
21271;DHT22;10795;50.796;3.860;2022-07-01T13:42:14;23.50;99.90
21271;DHT22;10795;50.796;3.860;2022-07-01T13:44:39;23.30;99.90
21271;DHT22;10795;50.796;3.860;2022-07-01T13:47:05;22.40;99.90
21271;DHT22;10795;50.796;3.860;2022-07-01T13:49:38;22.30;99.90
21271;DHT22;10795;50.796;3.860;2022-07-01T13:52:05;22.40;99.90
21271;DHT22;10795;50.796;3.860;2022-07-01T13:54:31;23.00;99.90
21271;DHT22;10795;50.796;3.860;2022-07-01T13:56:56;23.00;99.90
21271;DHT22;10795;50.796;3.860;2022-07-01T13:59:22;23.10;99.90
21271;DHT22;10795;50.796;3.860;2022-07-01T14:01:48;22.80;99.90
21271;DHT22;10795;50.796;3.860;2022-07-01T14:04:14;22.30;99.90
21271;DHT22;10795;50.796;3.860;2022-07-01T14:06:39;22.00;99.90
21271;DHT22;10795;50.796;3.860;2022-07-01T14:09:05;21.90;99.90
21271;DHT22;10795;50.796;3.860;2022-07-01T14:11:31;21.20;99.90
21271;DHT22;10795;50.796;3.860;2022-07-01T14:13:57;21.50;99.90
21271;DHT22;10795;50.796;3.860;2022-07-01T14:16:23;21.90;99.90
21271;DHT22;10795;50.796;3.860;2022-07-01T14:18:49;22.00;99.90
21271;DHT22;10795;50.796;3.860;2022-07-01T14:21:17;22.40;99.90
21271;DHT22;10795;50.796;3.860;2022-07-01T14:23:43;22.70;99.90
21271;DHT22;10795;50.796;3.860;2022-07-01T14:26:09;22.00;99.90
21271;DHT22;10795;50.796;3.860;2022-07-01T14:28:35;22.00;99.90
21271;DHT22;10795;50.796;3.860;2022-07-01T14:31:01;22.50;99.90
21271;DHT22;10795;50.796;3.860;2022-07-01T14:33:27;22.00;99.90
21271;DHT22;10795;50.796;3.860;2022-07-01T14:35:53;21.60;99.90
21271;DHT22;10795;50.796;3.860;2022-07-01T14:38:19;22.00;99.90
21271;DHT22;10795;50.796;3.860;2022-07-01T14:40:44;22.00;99.90
21271;DHT22;10795;50.796;3.860;2022-07-01T14:43:10;22.00;99.90
21271;DHT22;10795;50.796;3.860;2022-07-01T14:45:36;22.10;99.90
21271;DHT22;10795;50.796;3.860;2022-07-01T14:48:02;22.10;99.90
21271;DHT22;10795;50.796;3.860;2022-07-01T14:50:28;22.20;99.90
21271;DHT22;10795;50.796;3.860;2022-07-01T14:52:53;22.10;99.90
21271;DHT22;10795;50.796;3.860;2022-07-01T14:55:19;21.60;99.90
21271;DHT22;10795;50.796;3.860;2022-07-01T14:57:45;21.90;99.90
21271;DHT22;10795;50.796;3.860;2022-07-01T15:00:11;21.50;99.90
21271;DHT22;10795;50.796;3.860;2022-07-01T15:02:38;21.60;99.90
21271;DHT22;10795;50.796;3.860;2022-07-01T15:05:07;21.50;99.90
21271;DHT22;10795;50.796;3.860;2022-07-01T15:07:33;21.50;99.90
21271;DHT22;10795;50.796;3.860;2022-07-01T15:09:58;21.50;99.90
21271;DHT22;10795;50.796;3.860;2022-07-01T15:12:27;21.70;99.90
21271;DHT22;10795;50.796;3.860;2022-07-01T15:14:53;22.10;99.90
21271;DHT22;10795;50.796;3.860;2022-07-01T15:17:19;22.20;99.90
21271;DHT22;10795;50.796;3.860;2022-07-01T15:19:45;22.40;99.90
21271;DHT22;10795;50.796;3.860;2022-07-01T15:22:11;22.40;99.90
21271;DHT22;10795;50.796;3.860;2022-07-01T15:24:38;22.40;99.90
21271;DHT22;10795;50.796;3.860;2022-07-01T15:27:04;22.00;99.90
21271;DHT22;10795;50.796;3.860;2022-07-01T15:29:31;22.20;99.90
21271;DHT22;10795;50.796;3.860;2022-07-01T15:31:58;22.10;99.90
21271;DHT22;10795;50.796;3.860;2022-07-01T15:34:25;22.10;99.90
21271;DHT22;10795;50.796;3.860;2022-07-01T15:36:51;21.90;99.90
21271;DHT22;10795;50.796;3.860;2022-07-01T15:39:17;22.20;99.90
21271;DHT22;10795;50.796;3.860;2022-07-01T15:41:45;22.20;99.90
21271;DHT22;10795;50.796;3.860;2022-07-01T15:44:12;21.90;99.90
21271;DHT22;10795;50.796;3.860;2022-07-01T15:46:38;21.80;99.90
21271;DHT22;10795;50.796;3.860;2022-07-01T15:49:05;22.20;99.90
21271;DHT22;10795;50.796;3.860;2022-07-01T15:51:35;21.90;99.90